Rio Cuarto, Argentina

5:05 AM ART on July 27, 2016 (GMT -0300)
Area De Material | | Change Station

Elev 1381 ft 33.12 °S, 64.23 °W | Updated 1 hour ago

Clear
Clear
32 °F
Feels Like 28 °F
N
5
Wind Variable Wind from West

Today
High -- | Low -- °F
--% Chance of Precip.
Yesterday
High -- | Low -- °F
Precip. -- in
Pressure 30.27 in
Visibility -9999.0 miles
Clouds
Windchill 28 °F
Dew Point 32 °F
Humidity 100%
Rainfall 0.00 in
Snow Depth Not available.
8:11 AM 6:35 PM
Last Quarter, 46% visible
METAR SAOC 270700Z 27004KT CAVOK 00/00 Q1025
Pressure 30.27 in
Visibility -9999.0 miles
Clouds
Windchill 28 °F
Dew Point 32 °F
Humidity 100%
Rainfall 0.00 in
Snow Depth Not available.
8:11 AM 6:35 PM
Last Quarter, 46% visible
METAR SAOC 270700Z 27004KT CAVOK 00/00 Q1025

10-Day Weather Forecast

No radar image for this location.
×

Almanac

Astronomy

Jul. 27, 2016 Rise Set
Actual Time
Civil Twilight
Nautical Twilight
Astronomical Twilight
Moon
Length of Visible Light
Length of Day
Tomorrow will be .
, % of the Moon is Illuminated

Today's Extremes

Country Highs Country Lows

Community

WunderPhotos

Upload Photos

1,927,818 photos uploaded!

WunderBlog® & News

Nearby

Air Quality

  Air Quality AQ Index Pollutant
Not available.

Snow Depth

Station Depth Elevation

Earthquake Activity

City Distance Mag. Time & Date
Minimum magnitude displayed is 2.5.

Coastal Water Temperatures

Place Temperature

Stations

Nearby Weather Stations

Station Location Temp. Windchill Dew Point Humidity Wind Precip. Elev Updated Type